Time;durP1;ratioP1;P1;durP2;ratioP2;P2;SDS_P1;SDS_P2;PMS_P1;PMS_P2;Temp;Humidity;BMP_temperature;BMP_pressure;BME280_temperature;BME280_humidity;BME280_pressure;Samples;Min_cycle;Max_cycle;Signal;HPM_P1;HPM_P2
2022/05/28 00:01:42;;;;;;;5.73;3.57;;;9.90;99.90;;;;;;5136281;27;20675;-72
2022/05/28 00:04:09;;;;;;;9.83;3.80;;;9.90;99.90;;;;;;5136306;27;20235;-73
2022/05/28 00:06:36;;;;;;;6.97;3.87;;;9.80;99.90;;;;;;5136374;27;20199;-72
2022/05/28 00:09:04;;;;;;;7.70;3.37;;;9.80;99.90;;;;;;5136487;27;20199;-72
2022/05/28 00:11:33;;;;;;;5.30;3.50;;;9.70;99.90;;;;;;5136455;27;20198;-73
2022/05/28 00:14:00;;;;;;;9.90;3.80;;;9.60;99.90;;;;;;5136179;27;20191;-73
2022/05/28 00:16:28;;;;;;;8.47;3.90;;;9.50;99.90;;;;;;5136276;27;20617;-72
2022/05/28 00:18:55;;;;;;;6.10;3.90;;;9.30;99.90;;;;;;5136095;27;20229;-73
2022/05/28 00:21:23;;;;;;;12.80;4.37;;;9.30;99.90;;;;;;5136221;27;20224;-72
2022/05/28 00:23:51;;;;;;;8.47;4.23;;;9.40;99.90;;;;;;5116994;27;20199;-72
2022/05/28 00:26:18;;;;;;;8.17;4.30;;;9.30;99.90;;;;;;5136092;27;20191;-73
2022/05/28 00:28:45;;;;;;;8.73;4.40;;;9.20;99.90;;;;;;5136077;27;20335;-72
2022/05/28 00:31:12;;;;;;;9.80;4.33;;;9.20;99.90;;;;;;5135941;27;20199;-72
2022/05/28 00:33:40;;;;;;;9.77;4.47;;;9.00;99.90;;;;;;5135948;27;20198;-72
2022/05/28 00:36:09;;;;;;;7.37;4.47;;;8.80;99.90;;;;;;5136069;27;20194;-72
2022/05/28 00:38:36;;;;;;;10.30;4.50;;;8.70;99.90;;;;;;5135826;27;20280;-72
2022/05/28 00:41:03;;;;;;;6.60;4.43;;;8.60;99.90;;;;;;5135727;27;20203;-72
2022/05/28 00:43:31;;;;;;;7.53;4.53;;;8.70;99.90;;;;;;5135737;27;20228;-72
2022/05/28 00:46:02;;;;;;;9.57;4.27;;;8.70;99.90;;;;;;5135601;27;20191;-72
2022/05/28 00:48:32;;;;;;;9.73;4.70;;;8.70;99.90;;;;;;5135826;27;20520;-72
2022/05/28 00:51:06;;;;;;;9.63;5.00;;;8.60;99.90;;;;;;5135670;27;20602;-72
2022/05/28 00:53:34;;;;;;;11.00;4.47;;;8.50;99.90;;;;;;5135580;27;20228;-72
2022/05/28 00:56:03;;;;;;;10.57;4.60;;;8.40;99.90;;;;;;5135134;27;20225;-73
2022/05/28 00:58:30;;;;;;;9.10;5.03;;;8.20;99.90;;;;;;5135297;27;20227;-72
2022/05/28 01:00:57;;;;;;;8.07;4.10;;;8.20;99.90;;;;;;5135554;27;20195;-72
2022/05/28 01:03:31;;;;;;;10.30;4.67;;;8.10;99.90;;;;;;5135282;27;20317;-72
2022/05/28 01:06:08;;;;;;;8.73;4.17;;;8.20;99.90;;;;;;5135313;27;20198;-72
2022/05/28 01:08:41;;;;;;;9.07;5.03;;;8.20;99.90;;;;;;5135259;27;20195;-72
2022/05/28 01:11:20;;;;;;;7.50;3.90;;;8.10;99.90;;;;;;5135060;27;20322;-72
2022/05/28 01:13:52;;;;;;;9.70;3.83;;;8.00;99.90;;;;;;5135088;27;20195;-72
2022/05/28 01:16:25;;;;;;;8.00;3.70;;;7.90;99.90;;;;;;5135146;27;20713;-71
2022/05/28 01:18:55;;;;;;;9.03;4.10;;;7.90;99.90;;;;;;5134997;27;20219;-72
2022/05/28 01:21:31;;;;;;;8.00;4.10;;;7.80;99.90;;;;;;5135113;27;20643;-70
2022/05/28 01:24:05;;;;;;;9.37;4.13;;;7.70;99.90;;;;;;5135146;27;20202;-72
2022/05/28 01:26:53;;;;;;;7.60;4.43;;;7.80;99.90;;;;;;5134952;27;20286;-71
2022/05/28 01:29:22;;;;;;;10.77;4.63;;;7.60;99.90;;;;;;5135228;27;20657;-71
2022/05/28 01:31:49;;;;;;;7.70;4.03;;;7.60;99.90;;;;;;5134610;27;20647;-72
2022/05/28 01:34:17;;;;;;;6.93;4.10;;;7.50;99.90;;;;;;5134655;27;20244;-72
2022/05/28 01:36:45;;;;;;;7.07;4.30;;;7.50;99.90;;;;;;5134597;27;20669;-72
2022/05/28 01:39:14;;;;;;;10.67;4.77;;;7.50;99.90;;;;;;5134540;27;20275;-72
2022/05/28 01:41:41;;;;;;;6.53;4.50;;;7.40;99.90;;;;;;5134627;27;20252;-72
2022/05/28 01:44:11;;;;;;;9.63;4.00;;;7.40;99.90;;;;;;5134463;27;20581;-72
2022/05/28 01:46:39;;;;;;;10.47;4.27;;;7.40;99.90;;;;;;5134648;27;20719;-72
2022/05/28 01:49:10;;;;;;;5.83;3.97;;;7.40;99.90;;;;;;5134419;27;20657;-71
2022/05/28 01:51:41;;;;;;;7.23;3.93;;;7.30;99.90;;;;;;5134362;27;20736;-72
2022/05/28 01:54:11;;;;;;;9.40;3.83;;;7.30;99.90;;;;;;5134477;27;20198;-72
2022/05/28 01:56:42;;;;;;;12.20;4.03;;;7.20;99.90;;;;;;5134419;27;20259;-72
2022/05/28 01:59:11;;;;;;;8.53;4.00;;;7.00;99.90;;;;;;5134092;27;20223;-72
2022/05/28 02:01:38;;;;;;;7.53;4.43;;;6.80;99.90;;;;;;5134373;27;20221;-72
2022/05/28 02:04:05;;;;;;;17.43;4.97;;;6.60;99.90;;;;;;5134254;27;20268;-72
2022/05/28 02:06:32;;;;;;;7.00;4.10;;;6.50;99.90;;;;;;5134234;27;20203;-72
2022/05/28 02:08:59;;;;;;;11.40;4.40;;;6.50;99.90;;;;;;5134022;27;20191;-72
2022/05/28 02:11:29;;;;;;;9.90;5.10;;;6.40;99.90;;;;;;5133954;27;20252;-72
2022/05/28 02:14:05;;;;;;;10.17;4.73;;;6.30;99.90;;;;;;5134378;27;20256;-72
2022/05/28 02:16:41;;;;;;;8.73;4.90;;;6.40;99.90;;;;;;5134150;27;20199;-72
2022/05/28 02:19:14;;;;;;;9.17;4.97;;;6.50;99.90;;;;;;5133800;27;20689;-72
2022/05/28 02:21:46;;;;;;;11.97;4.87;;;6.50;99.90;;;;;;5133922;27;20195;-72
2022/05/28 02:24:17;;;;;;;8.40;4.83;;;6.40;99.90;;;;;;5133743;27;20232;-72
2022/05/28 02:26:49;;;;;;;14.20;5.27;;;6.30;99.90;;;;;;5134058;27;20595;-72
2022/05/28 02:29:17;;;;;;;10.97;5.67;;;6.20;99.90;;;;;;5133759;27;20588;-72
2022/05/28 02:31:47;;;;;;;12.47;5.33;;;6.20;99.90;;;;;;5133803;27;20592;-72
2022/05/28 02:34:15;;;;;;;15.13;5.40;;;6.20;99.90;;;;;;5133762;27;20604;-72
2022/05/28 02:36:42;;;;;;;11.37;5.40;;;6.20;99.90;;;;;;5133578;27;20199;-72
2022/05/28 02:39:09;;;;;;;13.03;5.30;;;6.30;99.90;;;;;;5133792;28;20264;-72
2022/05/28 02:41:36;;;;;;;13.60;5.10;;;6.40;99.90;;;;;;5133724;28;20194;-72
2022/05/28 02:44:03;;;;;;;15.53;5.40;;;6.20;99.90;;;;;;5133704;28;20565;-72
2022/05/28 02:46:30;;;;;;;13.33;5.17;;;6.20;99.90;;;;;;5134935;27;20194;-71
2022/05/28 02:48:58;;;;;;;10.20;5.47;;;6.10;99.90;;;;;;5137883;27;20236;-73
2022/05/28 02:51:25;;;;;;;11.83;4.87;;;6.00;99.90;;;;;;5143847;27;20195;-72
2022/05/28 02:53:55;;;;;;;14.23;5.07;;;6.00;99.90;;;;;;5154207;27;20198;-73
2022/05/28 02:56:23;;;;;;;10.03;5.80;;;6.00;99.90;;;;;;5158083;27;20248;-71
2022/05/28 02:58:50;;;;;;;8.37;4.93;;;6.00;99.90;;;;;;5158281;27;20223;-71
2022/05/28 03:01:19;;;;;;;10.33;5.03;;;6.00;99.90;;;;;;5152897;27;20646;-71
2022/05/28 03:03:46;;;;;;;14.30;6.07;;;6.00;99.90;;;;;;5152614;27;20226;-70
2022/05/28 03:06:14;;;;;;;12.87;5.80;;;5.90;99.90;;;;;;5145733;27;20588;-71
2022/05/28 03:08:41;;;;;;;13.70;5.40;;;5.90;99.90;;;;;;5137613;27;20703;-72
2022/05/28 03:11:08;;;;;;;8.50;5.27;;;5.80;99.90;;;;;;5137607;27;20559;-72
2022/05/28 03:13:35;;;;;;;14.90;5.80;;;5.80;99.90;;;;;;5137560;27;20531;-72
2022/05/28 03:16:01;;;;;;;10.10;4.87;;;5.80;99.90;;;;;;5137463;27;20243;-72
2022/05/28 03:18:28;;;;;;;10.90;5.07;;;5.80;99.90;;;;;;5137298;27;20223;-72
2022/05/28 03:20:54;;;;;;;13.93;5.33;;;6.00;99.90;;;;;;5137519;27;20220;-72
2022/05/28 03:23:23;;;;;;;12.50;6.07;;;5.90;99.90;;;;;;5137571;27;20191;-72
2022/05/28 03:25:49;;;;;;;14.80;5.90;;;5.90;99.90;;;;;;5137508;27;20195;-72
2022/05/28 03:28:16;;;;;;;9.50;5.20;;;6.00;99.90;;;;;;5137318;27;20199;-72
2022/05/28 03:30:43;;;;;;;14.70;5.17;;;6.00;99.90;;;;;;5137336;27;20554;-72
2022/05/28 03:33:10;;;;;;;11.07;5.13;;;6.10;99.90;;;;;;5137420;27;20202;-72
2022/05/28 03:35:37;;;;;;;10.57;5.40;;;6.00;99.90;;;;;;5137127;27;20710;-72
2022/05/28 03:38:10;;;;;;;12.90;5.30;;;6.10;99.90;;;;;;5137060;27;20685;-72
2022/05/28 03:40:38;;;;;;;17.03;5.70;;;6.10;99.90;;;;;;5137064;27;20248;-71
2022/05/28 03:43:06;;;;;;;9.73;5.37;;;6.10;99.90;;;;;;5136994;27;20199;-72
2022/05/28 03:45:33;;;;;;;17.00;5.43;;;6.10;99.90;;;;;;5136881;27;20214;-73
2022/05/28 03:48:00;;;;;;;10.60;4.80;;;6.00;99.90;;;;;;5137126;27;20202;-72
2022/05/28 03:50:26;;;;;;;11.37;5.27;;;6.00;99.90;;;;;;5137038;27;20195;-72
2022/05/28 03:52:53;;;;;;;19.57;5.30;;;5.90;99.90;;;;;;5137011;27;20252;-72
2022/05/28 03:55:20;;;;;;;15.30;5.27;;;6.00;99.90;;;;;;5136910;27;20240;-71
2022/05/28 03:57:48;;;;;;;15.47;5.50;;;5.90;99.90;;;;;;5136779;27;20198;-71
2022/05/28 04:00:16;;;;;;;10.87;4.53;;;6.00;99.90;;;;;;5136919;27;20251;-72
2022/05/28 04:02:42;;;;;;;10.90;4.70;;;6.00;99.90;;;;;;5136377;27;20631;-72
2022/05/28 04:05:10;;;;;;;9.60;4.87;;;6.00;99.90;;;;;;5136779;27;20199;-72
2022/05/28 04:07:37;;;;;;;9.43;4.40;;;6.10;99.90;;;;;;5136837;27;20195;-72
2022/05/28 04:10:05;;;;;;;8.70;4.60;;;6.10;99.90;;;;;;5136475;27;20210;-72
2022/05/28 04:12:32;;;;;;;14.83;4.63;;;6.10;99.90;;;;;;5136342;27;20199;-71
2022/05/28 04:15:00;;;;;;;8.17;4.50;;;6.10;99.90;;;;;;5136596;27;20311;-71
2022/05/28 04:17:29;;;;;;;9.63;4.50;;;6.20;99.90;;;;;;5136638;27;20252;-72
2022/05/28 04:19:56;;;;;;;10.87;4.27;;;6.30;99.90;;;;;;5136420;27;20230;-71
2022/05/28 04:22:22;;;;;;;10.03;4.20;;;6.30;99.90;;;;;;5136230;27;20202;-71
2022/05/28 04:24:49;;;;;;;9.97;4.40;;;6.40;99.90;;;;;;5135796;27;20203;-72
2022/05/28 04:27:16;;;;;;;14.33;4.53;;;6.50;99.90;;;;;;5136046;27;20219;-71
2022/05/28 04:29:43;;;;;;;10.40;4.00;;;6.50;99.90;;;;;;5136247;27;20203;-71
2022/05/28 04:32:11;;;;;;;11.83;4.37;;;6.50;99.90;;;;;;5136203;27;20195;-72
2022/05/28 04:34:37;;;;;;;15.20;4.77;;;6.60;99.90;;;;;;5135867;27;20240;-71
2022/05/28 04:37:05;;;;;;;11.20;4.13;;;6.70;99.90;;;;;;5135972;27;20247;-71
2022/05/28 04:39:31;;;;;;;13.10;4.20;;;6.80;99.90;;;;;;5135747;27;20272;-71
2022/05/28 04:41:58;;;;;;;10.70;4.30;;;6.90;99.90;;;;;;5135514;27;20202;-72
2022/05/28 04:44:25;;;;;;;12.27;3.80;;;7.00;99.90;;;;;;5135942;27;20194;-72
2022/05/28 04:46:51;;;;;;;11.73;4.47;;;7.10;99.90;;;;;;5135937;27;20248;-72
2022/05/28 04:49:19;;;;;;;11.60;4.40;;;7.30;99.90;;;;;;5135929;27;20600;-71
2022/05/28 04:51:46;;;;;;;12.27;4.20;;;7.40;99.90;;;;;;5135889;27;20259;-71
2022/05/28 04:54:12;;;;;;;11.33;4.37;;;7.40;99.90;;;;;;5135564;27;20199;-72
2022/05/28 04:56:39;;;;;;;9.57;3.80;;;7.60;99.90;;;;;;5135728;27;20267;-72
2022/05/28 04:59:07;;;;;;;6.93;3.90;;;7.60;99.90;;;;;;5135462;27;20260;-72
2022/05/28 05:01:36;;;;;;;13.00;4.03;;;7.60;99.90;;;;;;5135364;27;20646;-72
2022/05/28 05:04:03;;;;;;;8.90;3.80;;;7.60;99.90;;;;;;5135603;27;20250;-72
2022/05/28 05:06:31;;;;;;;10.70;4.00;;;7.70;99.90;;;;;;5135324;27;20202;-72
2022/05/28 05:08:57;;;;;;;9.70;4.03;;;7.70;99.90;;;;;;5134962;27;20211;-72
2022/05/28 05:11:24;;;;;;;12.53;3.97;;;7.80;99.90;;;;;;5135424;27;20205;-72
2022/05/28 05:13:51;;;;;;;9.10;4.13;;;7.90;99.90;;;;;;5135212;27;20604;-71
2022/05/28 05:16:19;;;;;;;6.40;3.47;;;8.00;99.90;;;;;;5135292;27;20199;-71
2022/05/28 05:18:45;;;;;;;7.43;3.90;;;8.10;99.90;;;;;;5135079;27;20219;-71
2022/05/28 05:21:12;;;;;;;9.43;4.07;;;8.10;99.90;;;;;;5135016;27;20203;-71
2022/05/28 05:23:41;;;;;;;11.53;4.00;;;8.10;99.90;;;;;;5135238;27;20252;-72
2022/05/28 05:26:11;;;;;;;10.67;3.60;;;8.30;99.90;;;;;;5135341;27;20203;-72
2022/05/28 05:28:38;;;;;;;11.20;3.87;;;8.40;99.90;;;;;;5135061;27;20203;-72
2022/05/28 05:31:05;;;;;;;10.57;3.83;;;8.60;99.90;;;;;;5134983;27;20198;-72
2022/05/28 05:33:31;;;;;;;9.07;3.63;;;8.70;99.90;;;;;;5116635;27;20653;-72
2022/05/28 05:35:58;;;;;;;10.80;3.20;;;8.90;99.90;;;;;;5134777;27;20654;-72
2022/05/28 05:38:25;;;;;;;6.30;2.80;;;9.10;99.90;;;;;;5134812;27;20243;-72
2022/05/28 05:40:53;;;;;;;8.00;3.00;;;9.20;99.90;;;;;;5134691;27;20646;-72
2022/05/28 05:43:20;;;;;;;6.90;2.77;;;9.30;99.90;;;;;;5134665;27;20209;-72
2022/05/28 05:45:52;;;;;;;6.27;2.57;;;9.40;99.90;;;;;;5134650;27;20596;-72
2022/05/28 05:48:21;;;;;;;9.67;2.73;;;9.50;99.90;;;;;;5134640;27;20206;-72
2022/05/28 05:50:47;;;;;;;6.40;2.20;;;9.60;99.90;;;;;;5134702;27;20255;-72
2022/05/28 05:53:14;;;;;;;7.17;3.00;;;9.70;99.90;;;;;;5134672;27;20195;-72
2022/05/28 05:55:40;;;;;;;8.20;2.30;;;9.80;99.90;;;;;;5134571;27;20203;-71
2022/05/28 05:58:09;;;;;;;7.77;2.40;;;9.80;99.90;;;;;;5116251;27;20244;-71
2022/05/28 06:00:36;;;;;;;5.17;2.37;;;9.80;99.90;;;;;;5134258;27;20223;-72
2022/05/28 06:03:03;;;;;;;10.07;2.80;;;9.90;99.90;;;;;;5134598;27;20227;-73
2022/05/28 06:05:30;;;;;;;7.57;2.33;;;9.90;99.90;;;;;;5135163;27;20217;-74
2022/05/28 06:07:56;;;;;;;7.20;2.50;;;9.90;99.90;;;;;;5148587;27;20240;-70
2022/05/28 06:10:23;;;;;;;10.40;2.97;;;10.00;99.90;;;;;;5149373;27;20199;-71
2022/05/28 06:12:50;;;;;;;8.27;2.43;;;10.10;99.90;;;;;;5148833;27;20206;-72
2022/05/28 06:15:18;;;;;;;6.30;2.70;;;10.00;99.90;;;;;;5144312;27;20195;-71
2022/05/28 06:17:45;;;;;;;12.93;2.93;;;10.00;99.90;;;;;;5147420;27;20299;-72
2022/05/28 06:20:13;;;;;;;8.33;2.50;;;10.00;99.90;;;;;;5147436;27;20631;-71
2022/05/28 06:22:40;;;;;;;7.90;2.67;;;10.00;99.90;;;;;;5140684;27;20604;-71
2022/05/28 06:25:07;;;;;;;8.10;2.70;;;10.10;99.90;;;;;;5133926;27;20199;-72
2022/05/28 06:27:35;;;;;;;8.60;2.60;;;10.10;99.90;;;;;;5134007;27;20644;-71
2022/05/28 06:30:02;;;;;;;8.93;2.70;;;10.20;99.90;;;;;;5134029;27;20650;-72
2022/05/28 06:32:30;;;;;;;7.83;3.43;;;10.20;99.90;;;;;;5133911;27;20202;-72
2022/05/28 06:34:57;;;;;;;9.50;2.77;;;10.30;99.90;;;;;;5133867;27;20252;-72
2022/05/28 06:37:23;;;;;;;5.27;2.50;;;10.30;99.90;;;;;;5133948;27;20240;-71
2022/05/28 06:39:50;;;;;;;6.87;2.57;;;10.40;99.90;;;;;;5133640;28;20226;-70
2022/05/28 06:42:17;;;;;;;7.73;2.60;;;10.40;99.90;;;;;;5133931;28;20203;-70
2022/05/28 06:44:43;;;;;;;9.13;2.90;;;10.50;99.90;;;;;;5133623;28;20203;-71
2022/05/28 06:47:10;;;;;;;8.70;2.50;;;10.50;99.90;;;;;;5133556;28;20252;-71
2022/05/28 06:49:38;;;;;;;7.00;2.60;;;10.50;99.90;;;;;;5133773;28;20202;-71
2022/05/28 06:52:05;;;;;;;6.47;2.40;;;10.70;99.90;;;;;;5133795;28;20203;-71
2022/05/28 06:54:32;;;;;;;7.20;2.30;;;10.70;99.90;;;;;;5133567;28;20244;-71
2022/05/28 06:56:58;;;;;;;6.80;2.50;;;10.70;99.90;;;;;;5133436;28;20195;-71
2022/05/28 06:59:25;;;;;;;7.33;2.47;;;10.70;99.90;;;;;;5133106;28;20214;-70
2022/05/28 07:01:53;;;;;;;6.73;2.40;;;10.90;99.90;;;;;;5115193;28;20666;-70
2022/05/28 07:04:20;;;;;;;5.57;2.10;;;10.80;99.90;;;;;;5133476;28;20384;-71
2022/05/28 07:06:48;;;;;;;6.43;2.13;;;10.80;99.90;;;;;;5133740;28;20203;-72
2022/05/28 07:09:14;;;;;;;4.03;2.10;;;10.90;99.90;;;;;;5134032;28;20297;-72
2022/05/28 07:11:41;;;;;;;6.70;2.40;;;11.00;99.90;;;;;;5133418;28;20251;-72
2022/05/28 07:14:07;;;;;;;8.33;2.17;;;10.90;99.90;;;;;;5133544;28;20203;-72
2022/05/28 07:16:34;;;;;;;13.73;3.70;;;11.20;99.90;;;;;;5133482;28;20263;-72
2022/05/28 07:19:01;;;;;;;6.43;2.07;;;11.30;99.90;;;;;;5133341;28;20231;-71
2022/05/28 07:21:27;;;;;;;6.77;2.30;;;11.20;99.90;;;;;;5133390;28;20199;-71
2022/05/28 07:23:56;;;;;;;5.37;2.40;;;11.40;99.90;;;;;;5133236;28;20252;-71
2022/05/28 07:26:22;;;;;;;4.53;1.93;;;11.50;99.90;;;;;;5133197;28;20191;-71
2022/05/28 07:28:49;;;;;;;9.37;2.20;;;11.50;99.90;;;;;;5133413;28;20198;-71
2022/05/28 07:31:18;;;;;;;11.23;2.83;;;11.70;99.90;;;;;;5133089;28;20813;-71
2022/05/28 07:33:46;;;;;;;5.77;2.37;;;11.70;99.90;;;;;;5136407;27;20214;-71
2022/05/28 07:36:16;;;;;;;5.03;1.90;;;11.70;99.90;;;;;;5136897;27;20553;-71
2022/05/28 07:38:43;;;;;;;7.67;2.00;;;11.80;99.90;;;;;;5137032;27;20203;-71
2022/05/28 07:41:14;;;;;;;8.30;2.33;;;11.90;99.90;;;;;;5137024;27;20643;-72
2022/05/28 07:43:41;;;;;;;6.63;2.10;;;12.00;99.90;;;;;;5137045;27;20191;-70
2022/05/28 07:46:12;;;;;;;5.57;1.57;;;11.80;99.90;;;;;;5136894;27;20198;-71
2022/05/28 07:48:39;;;;;;;5.40;2.20;;;11.70;99.90;;;;;;5136906;27;20195;-70
2022/05/28 07:51:05;;;;;;;6.00;1.97;;;12.00;99.90;;;;;;5136550;27;20646;-71
2022/05/28 07:53:32;;;;;;;5.67;2.40;;;12.30;99.90;;;;;;5136875;27;20195;-71
2022/05/28 07:56:00;;;;;;;7.37;2.10;;;12.60;99.90;;;;;;5136726;27;20191;-73
2022/05/28 07:58:29;;;;;;;7.10;2.30;;;12.50;99.90;;;;;;5136860;27;20198;-71
2022/05/28 08:00:56;;;;;;;6.83;2.03;;;12.90;99.90;;;;;;5136410;27;20714;-71
2022/05/28 08:03:22;;;;;;;6.23;2.27;;;12.90;99.90;;;;;;5136467;27;20219;-71
2022/05/28 08:05:51;;;;;;;6.20;1.97;;;12.90;99.90;;;;;;5136465;27;20199;-71
2022/05/28 08:08:19;;;;;;;5.27;1.83;;;12.80;99.90;;;;;;5136697;27;20243;-71
2022/05/28 08:10:46;;;;;;;6.20;1.87;;;12.50;99.90;;;;;;5136631;27;20195;-71
2022/05/28 08:13:16;;;;;;;9.33;2.37;;;12.50;99.90;;;;;;5136506;27;20203;-71
2022/05/28 08:15:45;;;;;;;5.23;1.90;;;12.90;99.90;;;;;;5136476;27;20591;-71
2022/05/28 08:18:15;;;;;;;7.43;1.77;;;12.80;99.90;;;;;;5136288;27;20335;-71
2022/05/28 08:23:26;;;;;;;3.37;1.80;;;13.50;99.90;;;;;;5136272;27;20669;-71
2022/05/28 08:25:53;;;;;;;4.03;1.53;;;13.90;99.90;;;;;;5136269;27;20248;-72
2022/05/28 08:28:21;;;;;;;3.37;1.60;;;14.30;99.90;;;;;;5136146;27;20203;-71
2022/05/28 08:30:49;;;;;;;3.77;1.50;;;14.20;99.90;;;;;;5135999;27;20224;-72
2022/05/28 08:33:18;;;;;;;4.90;1.80;;;13.90;99.90;;;;;;5136214;27;20264;-72
2022/05/28 08:35:46;;;;;;;3.90;1.60;;;14.10;99.90;;;;;;5136052;27;20252;-71
2022/05/28 08:38:15;;;;;;;4.20;1.70;;;14.30;99.90;;;;;;5136099;27;20191;-71
2022/05/28 08:40:45;;;;;;;5.60;1.97;;;14.10;99.90;;;;;;5135664;27;20271;-71
2022/05/28 08:43:14;;;;;;;4.83;1.70;;;14.00;99.90;;;;;;5135554;27;20199;-73
2022/05/28 08:45:41;;;;;;;5.60;2.00;;;13.40;99.90;;;;;;5135138;27;20322;-71
2022/05/28 08:48:09;;;;;;;4.30;1.60;;;13.40;99.90;;;;;;5135829;27;20342;-71
2022/05/28 08:50:46;;;;;;;5.10;1.73;;;13.50;99.90;;;;;;5135602;27;20198;-71
2022/05/28 08:53:16;;;;;;;3.57;1.40;;;14.00;99.90;;;;;;5135570;27;20195;-71
2022/05/28 08:55:46;;;;;;;3.53;1.60;;;14.10;99.90;;;;;;5135393;27;20277;-71
2022/05/28 08:58:15;;;;;;;2.93;1.50;;;14.30;99.90;;;;;;5135616;27;20198;-71
2022/05/28 09:00:45;;;;;;;5.07;1.50;;;13.90;99.90;;;;;;5135549;27;20248;-71
2022/05/28 09:03:16;;;;;;;3.77;1.20;;;13.80;99.90;;;;;;5135327;27;20223;-72
2022/05/28 09:05:50;;;;;;;4.43;1.70;;;14.00;99.90;;;;;;5135447;27;20198;-72
2022/05/28 09:08:25;;;;;;;4.37;1.80;;;14.50;99.90;;;;;;5135233;27;20208;-72
2022/05/28 09:10:54;;;;;;;3.70;1.60;;;15.00;99.90;;;;;;5135430;27;20190;-72
2022/05/28 09:13:28;;;;;;;5.87;2.00;;;15.10;96.20;;;;;;5135370;27;20191;-72
2022/05/28 09:15:59;;;;;;;5.27;1.50;;;15.30;95.30;;;;;;5135233;27;20198;-72
2022/05/28 09:18:36;;;;;;;3.07;1.30;;;15.00;94.50;;;;;;5135429;27;20195;-72
2022/05/28 09:21:05;;;;;;;4.70;1.40;;;14.30;96.30;;;;;;5135672;27;20677;-72
2022/05/28 09:23:40;;;;;;;8.30;3.40;;;14.00;98.00;;;;;;5137616;27;20195;-72
2022/05/28 09:26:07;;;;;;;6.03;2.30;;;13.80;98.20;;;;;;5137421;27;20194;-73
2022/05/28 09:28:47;;;;;;;3.77;1.57;;;14.00;98.00;;;;;;5136214;27;20666;-72
2022/05/28 09:31:28;;;;;;;4.93;1.63;;;14.00;98.40;;;;;;5136566;27;20190;-72
2022/05/28 09:34:07;;;;;;;5.00;1.43;;;14.50;96.50;;;;;;5135416;27;20222;-73
2022/05/28 09:36:44;;;;;;;4.33;1.63;;;14.90;94.30;;;;;;5142668;27;20252;-72
2022/05/28 09:39:22;;;;;;;2.33;1.70;;;14.70;94.00;;;;;;5134703;27;20281;-72
2022/05/28 09:41:59;;;;;;;2.73;1.63;;;15.40;93.60;;;;;;5134472;27;20234;-72
2022/05/28 09:44:41;;;;;;;4.67;1.83;;;15.80;91.10;;;;;;5134567;27;20194;-72
2022/05/28 09:47:12;;;;;;;3.00;1.50;;;15.00;91.40;;;;;;5134309;27;20259;-72
2022/05/28 09:49:51;;;;;;;4.60;1.50;;;15.60;92.20;;;;;;5134135;27;20666;-72
2022/05/28 09:52:27;;;;;;;4.83;1.90;;;15.40;87.40;;;;;;5134624;27;20547;-72
2022/05/28 09:55:10;;;;;;;4.10;1.40;;;15.60;87.50;;;;;;5134405;27;20194;-72
2022/05/28 09:57:45;;;;;;;7.77;1.87;;;15.20;87.30;;;;;;5134302;27;20298;-72
2022/05/28 10:00:13;;;;;;;5.20;1.43;;;16.10;88.70;;;;;;5134891;27;20275;-72
2022/05/28 10:02:43;;;;;;;6.20;1.80;;;15.90;85.10;;;;;;5134207;27;20295;-71
2022/05/28 10:05:14;;;;;;;6.07;2.10;;;15.60;87.10;;;;;;5134267;27;20195;-73
2022/05/28 10:07:43;;;;;;;3.85;1.67;;;15.80;88.80;;;;;;5134279;27;20203;-71
2022/05/28 10:10:18;;;;;;;4.13;1.77;;;16.00;89.80;;;;;;5133999;27;20731;-72
2022/05/28 10:12:45;;;;;;;4.20;2.00;;;16.40;84.20;;;;;;5133926;27;20199;-72
2022/05/28 10:15:15;;;;;;;4.88;1.40;;;17.10;80.90;;;;;;5134183;27;20286;-72
2022/05/28 10:17:44;;;;;;;4.40;1.60;;;17.10;78.60;;;;;;5134110;27;20206;-72
2022/05/28 10:20:18;;;;;;;3.05;1.50;;;16.90;75.70;;;;;;5133924;27;20219;-72
2022/05/28 10:22:46;;;;;;;3.10;1.70;;;17.70;70.90;;;;;;5134697;27;20237;-72
2022/05/28 10:25:28;;;;;;;3.47;1.38;;;16.50;68.50;;;;;;5134079;27;20251;-71
2022/05/28 10:27:56;;;;;;;3.90;1.65;;;15.80;72.50;;;;;;5133908;27;20206;-72
2022/05/28 10:30:26;;;;;;;2.75;1.55;;;16.50;70.50;;;;;;5133895;27;20604;-72
2022/05/28 10:32:53;;;;;;;2.67;1.25;;;17.20;65.80;;;;;;5133793;27;20191;-72
2022/05/28 10:35:27;;;;;;;4.93;1.42;;;18.30;57.10;;;;;;5133707;27;20247;-72
2022/05/28 10:37:54;;;;;;;2.42;1.45;;;16.70;56.10;;;;;;5133092;28;20190;-72
2022/05/28 10:40:24;;;;;;;4.20;1.65;;;17.20;56.60;;;;;;5133586;28;20263;-72
2022/05/28 10:42:56;;;;;;;3.13;1.60;;;17.70;51.60;;;;;;5133735;28;20257;-73
2022/05/28 10:45:24;;;;;;;1.70;1.17;;;18.10;50.40;;;;;;5133563;28;20194;-73
2022/05/28 10:48:05;;;;;;;4.15;1.80;;;18.30;52.00;;;;;;5133859;28;20290;-73
2022/05/28 10:50:43;;;;;;;4.45;1.60;;;18.00;49.90;;;;;;5133642;28;20199;-73
2022/05/28 10:53:28;;;;;;;3.20;1.50;;;17.80;49.50;;;;;;5133628;28;20210;-73
2022/05/28 10:56:13;;;;;;;2.95;1.50;;;17.10;51.90;;;;;;5133934;28;20593;-73
2022/05/28 10:58:52;;;;;;;3.92;1.60;;;16.30;54.40;;;;;;5133568;28;20199;-72
2022/05/28 11:01:36;;;;;;;4.18;1.88;;;16.20;55.50;;;;;;5133421;28;20828;-72
2022/05/28 11:04:24;;;;;;;2.92;1.50;;;16.40;56.90;;;;;;5133626;28;20265;-72
2022/05/28 11:07:13;;;;;;;4.82;1.80;;;16.70;56.80;;;;;;5133587;27;20391;-72
2022/05/28 11:09:53;;;;;;;3.65;1.75;;;16.50;58.40;;;;;;5137428;27;20715;-73
2022/05/28 11:12:48;;;;;;;4.63;1.88;;;16.00;61.40;;;;;;5137520;27;20198;-73
2022/05/28 11:15:32;;;;;;;4.47;2.17;;;15.90;63.80;;;;;;5137247;27;20195;-72
2022/05/28 11:18:21;;;;;;;6.97;2.47;;;15.40;61.80;;;;;;5137599;27;20251;-72
2022/05/28 11:20:58;;;;;;;1.83;1.42;;;16.90;59.40;;;;;;5137568;27;20551;-72
2022/05/28 11:24:00;;;;;;;3.60;1.75;;;18.00;50.90;;;;;;5137217;27;20247;-73
2022/05/28 11:26:32;;;;;;;4.63;1.58;;;19.00;43.00;;;;;;5137459;27;20202;-72
2022/05/28 11:29:25;;;;;;;2.33;1.45;;;18.70;41.10;;;;;;5137275;27;20199;-73
2022/05/28 11:31:55;;;;;;;5.72;1.60;;;18.40;38.30;;;;;;5137030;27;20199;-73
2022/05/28 11:34:31;;;;;;;3.03;1.60;;;17.60;40.30;;;;;;5136993;27;20519;-73
2022/05/28 11:37:03;;;;;;;4.57;1.88;;;16.60;44.10;;;;;;5137162;27;20194;-73
2022/05/28 11:39:43;;;;;;;2.22;1.45;;;16.50;45.80;;;;;;5137127;27;20715;-72
2022/05/28 11:42:22;;;;;;;3.47;1.50;;;16.90;48.10;;;;;;5136697;27;20267;-73
2022/05/28 11:44:54;;;;;;;2.38;1.30;;;16.40;46.10;;;;;;5137190;27;20248;-73
2022/05/28 11:47:31;;;;;;;4.00;1.50;;;15.90;45.00;;;;;;5136834;27;20654;-72
2022/05/28 11:52:50;;;;;;;4.72;1.50;;;17.80;45.70;;;;;;5136889;27;20217;-73
2022/05/28 11:55:22;;;;;;;1.90;1.40;;;19.80;42.90;;;;;;5136804;27;20268;-73
2022/05/28 11:57:53;;;;;;;3.80;1.40;;;20.80;37.90;;;;;;5136508;27;20650;-74
2022/05/28 12:00:21;;;;;;;2.92;1.48;;;19.90;33.30;;;;;;5136578;27;20195;-73
2022/05/28 12:02:54;;;;;;;3.45;1.70;;;18.10;33.30;;;;;;5136080;27;20235;-73
2022/05/28 12:05:23;;;;;;;2.10;1.42;;;18.80;35.30;;;;;;5136316;27;20240;-73
2022/05/28 12:07:56;;;;;;;3.05;1.30;;;19.80;33.70;;;;;;5136667;27;20256;-73
2022/05/28 12:10:45;;;;;;;2.13;1.70;;;20.10;31.00;;;;;;5136432;27;20202;-73
2022/05/28 12:13:11;;;;;;;2.63;1.38;;;19.60;30.30;;;;;;5136224;27;20663;-73
2022/05/28 12:15:39;;;;;;;1.90;1.50;;;20.60;30.60;;;;;;5136168;27;20244;-73
2022/05/28 12:18:19;;;;;;;1.67;1.38;;;19.60;31.00;;;;;;5136135;27;20287;-73
2022/05/28 12:20:52;;;;;;;2.58;1.45;;;21.00;30.20;;;;;;5135905;27;20271;-73
2022/05/28 12:23:29;;;;;;;2.10;1.40;;;21.20;28.90;;;;;;5136104;27;20191;-73
2022/05/28 12:25:57;;;;;;;4.22;1.75;;;21.70;28.50;;;;;;5136041;27;20245;-73
2022/05/28 12:28:26;;;;;;;2.50;1.70;;;21.60;26.70;;;;;;5136153;27;20190;-73
2022/05/28 12:30:57;;;;;;;9.50;1.80;;;21.30;27.40;;;;;;5135612;27;20267;-74
2022/05/28 12:33:27;;;;;;;3.38;1.60;;;21.50;26.30;;;;;;5135881;27;20222;-73
2022/05/28 12:36:15;;;;;;;3.67;1.95;;;20.90;26.40;;;;;;5135573;27;20195;-73
2022/05/28 12:38:49;;;;;;;2.45;1.50;;;19.60;26.60;;;;;;5135579;27;20195;-73
2022/05/28 12:41:20;;;;;;;4.28;1.70;;;20.50;26.60;;;;;;5135796;27;20271;-73
2022/05/28 12:44:02;;;;;;;2.78;1.60;;;20.60;27.20;;;;;;5135699;27;20252;-73
2022/05/28 12:46:42;;;;;;;3.58;1.63;;;20.20;27.60;;;;;;5135514;27;20244;-73
2022/05/28 12:49:11;;;;;;;3.45;1.30;;;21.60;26.60;;;;;;5135318;27;20195;-73
2022/05/28 12:51:55;;;;;;;2.88;1.45;;;22.50;25.30;;;;;;5135440;27;20194;-73
2022/05/28 12:54:27;;;;;;;2.50;1.40;;;21.40;24.30;;;;;;5135428;27;20195;-73
2022/05/28 12:57:07;;;;;;;2.72;1.70;;;21.10;23.10;;;;;;5135277;27;20239;-73
2022/05/28 12:59:36;;;;;;;5.38;2.00;;;21.40;23.80;;;;;;5135340;27;20667;-74
2022/05/28 13:02:06;;;;;;;3.03;1.85;;;23.00;24.20;;;;;;5135189;27;20223;-73
2022/05/28 13:04:39;;;;;;;2.67;2.00;;;23.00;23.00;;;;;;5134927;27;20223;-73
2022/05/28 13:07:17;;;;;;;6.47;1.80;;;23.80;22.90;;;;;;5135279;27;20199;-74
2022/05/28 13:09:45;;;;;;;3.47;1.60;;;22.30;20.70;;;;;;5135009;27;20228;-74